createdAt,value
2022-09-07T00:02:16.682Z,8.23
2022-09-07T00:04:43.092Z,6.43
2022-09-07T00:07:09.600Z,8.93
2022-09-07T00:09:36.043Z,7.03
2022-09-07T00:12:02.595Z,6.60
2022-09-07T00:14:28.999Z,7.57
2022-09-07T00:16:55.355Z,7.13
2022-09-07T00:19:22.651Z,7.17
2022-09-07T00:21:49.053Z,8.53
2022-09-07T00:24:15.399Z,4.53
2022-09-07T00:26:41.773Z,4.53
2022-09-07T00:29:08.419Z,8.87
2022-09-07T00:31:35.498Z,5.77
2022-09-07T00:34:02.373Z,5.50
2022-09-07T00:36:29.212Z,6.57
2022-09-07T00:38:55.665Z,7.07
2022-09-07T00:41:22.586Z,4.90
2022-09-07T00:43:50.634Z,5.83
2022-09-07T00:46:27.581Z,8.60
2022-09-07T00:49:00.091Z,6.97
2022-09-07T00:51:33.404Z,8.33
2022-09-07T00:54:05.086Z,4.83
2022-09-07T00:56:33.055Z,7.67
2022-09-07T00:58:59.441Z,4.70
2022-09-07T01:01:27.013Z,8.10
2022-09-07T01:03:54.842Z,12.20
2022-09-07T01:06:23.555Z,13.57
2022-09-07T01:08:51.251Z,14.23
2022-09-07T01:11:19.610Z,9.77
2022-09-07T01:13:46.599Z,14.73
2022-09-07T01:16:13.020Z,6.93
2022-09-07T01:18:45.447Z,8.27
2022-09-07T01:21:18.753Z,8.47
2022-09-07T01:23:51.115Z,9.07
2022-09-07T01:26:41.432Z,11.43
2022-09-07T01:29:23.085Z,5.00
2022-09-07T01:31:55.249Z,8.97
2022-09-07T01:34:25.779Z,7.77
2022-09-07T01:36:55.294Z,6.37
2022-09-07T01:39:24.551Z,8.57
2022-09-07T01:42:09.884Z,7.23
2022-09-07T01:44:39.557Z,6.37
2022-09-07T01:47:15.098Z,9.10
2022-09-07T01:49:44.598Z,7.40
2022-09-07T01:52:16.864Z,6.03
2022-09-07T01:54:48.487Z,7.63
2022-09-07T01:57:18.670Z,5.20
2022-09-07T01:59:52.190Z,4.33
2022-09-07T02:02:28.366Z,4.13
2022-09-07T02:04:58.674Z,8.47
2022-09-07T02:07:30.997Z,3.97
2022-09-07T02:10:08.424Z,4.13
2022-09-07T02:12:40.441Z,4.43
2022-09-07T02:15:14.956Z,5.03
2022-09-07T02:17:52.294Z,3.80
2022-09-07T02:20:21.502Z,4.40
2022-09-07T02:22:50.887Z,4.37
2022-09-07T02:25:21.942Z,6.13
2022-09-07T02:27:51.138Z,3.40
2022-09-07T02:30:17.829Z,3.13
2022-09-07T02:32:44.234Z,4.50
2022-09-07T02:35:10.659Z,4.13
2022-09-07T02:37:38.286Z,5.97
2022-09-07T02:40:05.232Z,5.10
2022-09-07T02:42:33.225Z,6.43
2022-09-07T02:45:00.481Z,4.37
2022-09-07T02:47:32.080Z,5.37
2022-09-07T02:50:17.191Z,2.70
2022-09-07T02:52:52.339Z,3.70
2022-09-07T02:55:37.451Z,3.20
2022-09-07T02:58:06.839Z,2.63
2022-09-07T03:00:42.499Z,2.83
2022-09-07T03:03:14.696Z,5.03
2022-09-07T03:05:57.634Z,4.10
2022-09-07T03:08:31.085Z,3.63
2022-09-07T03:10:58.174Z,3.93
2022-09-07T03:13:26.137Z,3.33
2022-09-07T03:15:55.971Z,3.23
2022-09-07T03:18:23.494Z,3.50
2022-09-07T03:20:49.857Z,3.77
2022-09-07T03:23:16.190Z,4.23
2022-09-07T03:25:42.537Z,4.57
2022-09-07T03:28:09.021Z,4.17
2022-09-07T03:30:35.499Z,5.00
2022-09-07T03:33:02.139Z,3.63
2022-09-07T03:35:28.535Z,3.93
2022-09-07T03:37:54.913Z,4.20
2022-09-07T03:40:21.268Z,4.60
2022-09-07T03:42:48.261Z,4.27
2022-09-07T03:45:14.606Z,3.30
2022-09-07T03:47:41.080Z,4.07
2022-09-07T03:50:07.650Z,5.03
2022-09-07T03:52:34.366Z,4.70
2022-09-07T03:55:00.721Z,5.43
2022-09-07T03:57:27.092Z,4.53
2022-09-07T03:59:53.438Z,5.10
2022-09-07T04:02:19.870Z,4.43
2022-09-07T04:04:46.296Z,3.97
2022-09-07T04:07:13.002Z,7.63
2022-09-07T04:09:39.387Z,6.13
2022-09-07T04:12:05.762Z,3.63
2022-09-07T04:14:32.227Z,4.67
2022-09-07T04:16:58.634Z,5.83
2022-09-07T04:19:25.087Z,6.07
2022-09-07T04:21:51.513Z,5.77
2022-09-07T04:24:18.276Z,4.73
2022-09-07T04:26:45.105Z,4.37
2022-09-07T04:29:12.038Z,4.00
2022-09-07T04:31:38.895Z,5.33
2022-09-07T04:34:06.201Z,4.57
2022-09-07T04:36:32.609Z,4.10
2022-09-07T04:39:00.385Z,5.30
2022-09-07T04:41:27.329Z,4.97
2022-09-07T04:43:55.424Z,6.37
2022-09-07T04:46:28.811Z,5.53
2022-09-07T04:48:58.649Z,4.63
2022-09-07T04:51:26.142Z,4.20
2022-09-07T04:53:53.411Z,5.43
2022-09-07T04:56:20.498Z,4.43
2022-09-07T04:58:47.278Z,7.17
2022-09-07T05:01:15.068Z,5.97
2022-09-07T05:03:41.529Z,7.17
2022-09-07T05:06:08.175Z,4.23
2022-09-07T05:08:38.400Z,4.87
2022-09-07T05:11:04.887Z,4.80
2022-09-07T05:13:31.829Z,5.13
2022-09-07T05:15:58.908Z,7.53
2022-09-07T05:18:25.731Z,8.40
2022-09-07T05:20:52.095Z,7.37
2022-09-07T05:23:18.954Z,8.83
2022-09-07T05:25:46.117Z,11.93
2022-09-07T05:28:15.971Z,7.90
2022-09-07T05:36:18.567Z,9.50
2022-09-07T05:38:44.995Z,5.43
2022-09-07T05:41:18.922Z,5.50
2022-09-07T05:46:32.789Z,5.50
2022-09-07T05:49:00.417Z,5.00
2022-09-07T05:51:26.754Z,5.10
2022-09-07T05:53:53.151Z,4.83
2022-09-07T05:56:19.486Z,6.67
2022-09-07T05:58:48.565Z,6.67
2022-09-07T06:01:15.099Z,5.00
2022-09-07T06:03:42.021Z,3.57
2022-09-07T06:06:12.984Z,3.60
2022-09-07T06:08:40.318Z,3.50
2022-09-07T06:11:07.735Z,3.47
2022-09-07T06:13:34.462Z,4.23
2022-09-07T06:16:01.780Z,3.00
2022-09-07T06:18:35.698Z,2.73
2022-09-07T06:21:06.017Z,3.80
2022-09-07T06:23:32.784Z,4.83
2022-09-07T06:25:59.482Z,4.87
2022-09-07T06:28:32.794Z,3.20
2022-09-07T06:31:02.828Z,4.40
2022-09-07T06:33:29.396Z,3.87
2022-09-07T06:35:56.787Z,5.97
2022-09-07T06:38:23.302Z,4.60
2022-09-07T06:40:50.303Z,4.77
2022-09-07T06:43:16.888Z,6.37
2022-09-07T06:45:43.313Z,4.67
2022-09-07T06:48:09.709Z,7.37
2022-09-07T06:50:36.635Z,6.07
2022-09-07T06:55:49.412Z,4.20
2022-09-07T06:58:15.795Z,5.47
2022-09-07T07:00:42.242Z,6.83
2022-09-07T07:03:08.664Z,5.50
2022-09-07T07:05:35.158Z,6.93
2022-09-07T07:08:01.649Z,5.40
2022-09-07T07:10:28.196Z,3.87
2022-09-07T07:12:58.478Z,4.47
2022-09-07T07:15:34.568Z,3.97
2022-09-07T07:18:28.361Z,8.00
2022-09-07T07:21:04.970Z,6.27
2022-09-07T07:23:31.645Z,5.77
2022-09-07T07:26:02.022Z,7.70
2022-09-07T07:31:15.680Z,4.13
2022-09-07T07:33:42.158Z,5.03
2022-09-07T07:36:11.384Z,5.60
2022-09-07T07:44:13.278Z,4.27
2022-09-07T07:46:39.622Z,4.30
2022-09-07T07:49:06.016Z,4.27
2022-09-07T07:52:50.012Z,5.90
2022-09-07T07:54:18.707Z,5.80
2022-09-07T07:56:45.039Z,7.03
2022-09-07T07:59:15.123Z,6.77
2022-09-07T08:01:43.693Z,6.83
2022-09-07T08:04:10.252Z,4.27
2022-09-07T08:06:38.007Z,7.27
2022-09-07T08:09:04.349Z,6.67
2022-09-07T08:11:31.194Z,6.90
2022-09-07T08:14:00.133Z,5.47
2022-09-07T08:16:26.553Z,5.13
2022-09-07T08:18:53.648Z,3.80
2022-09-07T08:21:19.979Z,4.30
2022-09-07T08:23:46.383Z,7.20
2022-09-07T08:26:12.709Z,5.70
2022-09-07T08:28:40.302Z,4.40
2022-09-07T08:31:08.007Z,6.73
2022-09-07T08:33:35.565Z,3.93
2022-09-07T08:36:02.835Z,9.33
2022-09-07T08:38:30.022Z,5.40
2022-09-07T08:40:56.956Z,5.93
2022-09-07T08:43:30.111Z,6.60
2022-09-07T08:46:15.109Z,7.27
2022-09-07T08:48:41.699Z,5.60
2022-09-07T08:51:24.088Z,4.77
2022-09-07T08:53:50.769Z,7.10
2022-09-07T08:56:33.815Z,4.37
2022-09-07T08:59:02.890Z,4.80
2022-09-07T09:01:32.813Z,3.07
2022-09-07T09:04:16.056Z,6.07
2022-09-07T09:06:43.250Z,6.30
2022-09-07T09:09:18.814Z,4.17
2022-09-07T09:12:03.413Z,4.33
2022-09-07T09:17:04.217Z,3.87
2022-09-07T09:19:30.624Z,4.60
2022-09-07T09:22:07.606Z,3.97
2022-09-07T09:24:37.424Z,3.63
2022-09-07T09:27:04.071Z,3.77
2022-09-07T09:29:30.410Z,4.13
2022-09-07T09:31:56.866Z,5.90
2022-09-07T09:34:25.548Z,3.13
2022-09-07T09:36:54.337Z,3.67
2022-09-07T09:39:26.873Z,3.57
2022-09-07T09:41:55.513Z,5.23
2022-09-07T10:46:07.050Z,6.07
2022-09-07T10:48:41.455Z,4.83
2022-09-07T10:51:16.346Z,4.50
2022-09-07T10:53:46.617Z,4.20
2022-09-07T10:56:13.142Z,3.67
2022-09-07T10:59:04.714Z,4.10
2022-09-07T11:01:37.594Z,3.13
2022-09-07T11:04:19.471Z,3.83
2022-09-07T11:06:48.236Z,3.10
2022-09-07T11:09:29.667Z,3.93
2022-09-07T11:12:05.479Z,4.77
2022-09-07T11:14:47.232Z,3.40
2022-09-07T11:17:15.692Z,3.80
2022-09-07T11:20:03.207Z,3.30
2022-09-07T11:22:38.251Z,4.03
2022-09-07T11:25:29.732Z,2.90
2022-09-07T11:27:58.921Z,2.63
2022-09-07T11:30:29.546Z,5.77
2022-09-07T11:33:03.611Z,2.70
2022-09-07T11:35:31.884Z,3.37
2022-09-07T11:38:01.413Z,2.00
2022-09-07T11:40:35.845Z,3.07
2022-09-07T11:43:20.850Z,5.20
2022-09-07T11:45:53.765Z,2.20
2022-09-07T11:48:23.189Z,2.97
2022-09-07T11:50:52.988Z,2.33
2022-09-07T11:53:25.679Z,2.43
2022-09-07T11:55:56.265Z,2.10
2022-09-07T11:58:28.414Z,1.97
2022-09-07T12:01:01.457Z,3.63
2022-09-07T12:03:30.698Z,2.97
2022-09-07T12:06:09.321Z,2.72
2022-09-07T12:08:51.029Z,1.90
2022-09-07T12:11:24.202Z,1.98
2022-09-07T12:13:50.502Z,1.35
2022-09-07T12:16:46.797Z,4.55
2022-09-07T12:19:37.005Z,2.30
2022-09-07T12:22:17.993Z,1.77
2022-09-07T12:24:45.228Z,2.20
2022-09-07T12:27:11.594Z,3.05
2022-09-07T12:29:44.766Z,1.48
2022-09-07T12:34:58.140Z,2.55
2022-09-07T12:37:27.536Z,1.30
2022-09-07T12:40:29.648Z,1.08
2022-09-07T12:43:10.899Z,1.30
2022-09-07T12:45:37.221Z,2.08
2022-09-07T12:48:09.709Z,2.15
2022-09-07T12:50:40.230Z,1.33
2022-09-07T12:53:12.775Z,1.30
2022-09-07T12:58:34.443Z,1.60
2022-09-07T13:01:19.792Z,3.20
2022-09-07T13:03:56.532Z,1.87
2022-09-07T13:09:30.182Z,2.07
2022-09-07T13:11:57.236Z,2.50
2022-09-07T13:14:27.707Z,1.90
2022-09-07T13:17:16.261Z,1.30
2022-09-07T13:19:46.021Z,1.17
2022-09-07T13:22:30.557Z,1.20
2022-09-07T13:24:59.548Z,0.97
2022-09-07T13:27:51.091Z,1.43
2022-09-07T13:30:27.706Z,4.00
2022-09-07T13:33:14.002Z,1.83
2022-09-07T13:35:44.720Z,2.07
2022-09-07T13:38:11.862Z,1.73
2022-09-07T13:40:39.632Z,2.83
2022-09-07T13:43:06.238Z,3.10
2022-09-07T13:45:51.418Z,4.27
2022-09-07T13:48:21.665Z,1.83
2022-09-07T13:50:48.025Z,1.20
2022-09-07T13:53:20.842Z,1.10
2022-09-07T13:55:59.380Z,3.33
2022-09-07T13:58:29.938Z,2.20
2022-09-07T14:00:58.692Z,1.43
2022-09-07T14:03:27.143Z,1.03
2022-09-07T14:06:12.290Z,1.43
2022-09-07T14:08:39.875Z,2.43
2022-09-07T14:11:16.984Z,1.70
2022-09-07T14:13:43.347Z,2.03
2022-09-07T14:16:09.746Z,1.67
2022-09-07T14:18:36.403Z,1.53
2022-09-07T14:21:03.137Z,1.37
2022-09-07T14:23:34.867Z,2.17
2022-09-07T14:26:16.731Z,1.00
2022-09-07T14:28:47.687Z,2.83
2022-09-07T14:31:15.804Z,0.97
2022-09-07T14:33:56.738Z,0.80
2022-09-07T14:36:44.092Z,1.73
2022-09-07T14:39:12.076Z,1.47
2022-09-07T14:41:40.554Z,4.13
2022-09-07T14:44:06.897Z,2.00
2022-09-07T14:46:36.819Z,2.03
2022-09-07T14:49:05.894Z,1.27
2022-09-07T14:51:36.478Z,1.00
2022-09-07T14:54:06.942Z,1.97
2022-09-07T14:56:37.598Z,2.90
2022-09-07T14:59:22.769Z,4.00
2022-09-07T15:01:49.143Z,3.20
2022-09-07T15:04:19.354Z,2.37
2022-09-07T15:07:02.311Z,1.20
2022-09-07T15:09:36.144Z,2.77
2022-09-07T15:12:30.018Z,2.20
2022-09-07T15:15:26.197Z,2.73
2022-09-07T15:17:54.405Z,1.10
2022-09-07T15:20:33.084Z,2.60
2022-09-07T15:22:59.547Z,1.90
2022-09-07T15:25:25.947Z,2.70
2022-09-07T15:27:53.396Z,1.20
2022-09-07T15:30:19.765Z,3.37
2022-09-07T15:32:46.149Z,1.90
2022-09-07T15:35:12.577Z,3.30
2022-09-07T15:40:26.211Z,2.43
2022-09-07T15:43:00.572Z,2.80
2022-09-07T15:45:27.323Z,2.00
2022-09-07T15:47:53.797Z,2.50
2022-09-07T15:50:23.177Z,1.83
2022-09-07T15:52:49.740Z,1.23
2022-09-07T15:55:17.592Z,2.00
2022-09-07T15:58:02.222Z,1.80
2022-09-07T16:00:31.061Z,2.40
2022-09-07T16:03:06.072Z,1.03
2022-09-07T16:05:33.539Z,1.10
2022-09-07T16:10:53.603Z,1.67
2022-09-07T16:13:20.862Z,1.57
2022-09-07T16:15:48.042Z,1.93
2022-09-07T16:18:16.912Z,1.27
2022-09-07T16:20:44.050Z,1.43
2022-09-07T16:23:16.002Z,2.27
2022-09-07T16:25:54.127Z,1.93
2022-09-07T16:28:20.706Z,1.40
2022-09-07T16:30:48.178Z,2.83
2022-09-07T16:33:14.757Z,1.30
2022-09-07T16:35:41.235Z,1.13
2022-09-07T16:40:54.111Z,1.87
2022-09-07T16:43:20.559Z,1.80
2022-09-07T16:46:02.974Z,1.80
2022-09-07T16:48:30.139Z,3.00
2022-09-07T16:51:01.683Z,2.43
2022-09-07T16:53:29.908Z,1.67
2022-09-07T16:56:05.417Z,1.77
2022-09-07T16:58:38.145Z,1.10
2022-09-07T17:01:08.293Z,1.07
2022-09-07T17:03:36.853Z,1.63
2022-09-07T17:06:04.391Z,1.63
2022-09-07T17:08:30.858Z,1.73
2022-09-07T17:11:01.416Z,1.53
2022-09-07T17:13:28.305Z,1.30
2022-09-07T17:15:54.923Z,2.40
2022-09-07T17:19:28.991Z,1.43
2022-09-07T17:21:11.179Z,1.33
2022-09-07T17:23:47.874Z,1.83
2022-09-07T17:26:20.844Z,1.20
2022-09-07T17:28:51.544Z,2.83
2022-09-07T17:34:11.093Z,1.57
2022-09-07T17:36:39.661Z,2.73
2022-09-07T17:39:17.155Z,1.27
2022-09-07T17:41:47.215Z,2.00
2022-09-07T17:44:16.008Z,2.20
2022-09-07T17:46:45.000Z,2.43
2022-09-07T17:49:14.306Z,1.40
2022-09-07T17:51:42.621Z,1.87
2022-09-07T17:54:14.984Z,2.20
2022-09-07T17:56:42.984Z,1.67
2022-09-07T18:02:01.523Z,1.67
2022-09-07T18:04:29.989Z,1.30
2022-09-07T18:06:57.636Z,1.37
2022-09-07T18:09:25.946Z,1.57
2022-09-07T18:11:52.981Z,1.60
2022-09-07T18:14:20.857Z,2.73
2022-09-07T18:16:50.072Z,1.80
2022-09-07T18:19:18.374Z,1.20
2022-09-07T18:21:47.196Z,1.57
2022-09-07T18:24:19.686Z,2.03
2022-09-07T18:26:50.615Z,2.80
2022-09-07T18:29:32.416Z,2.00
2022-09-07T18:32:02.887Z,1.20
2022-09-07T18:34:32.370Z,1.50
2022-09-07T18:37:02.115Z,2.57
2022-09-07T18:39:30.911Z,2.20
2022-09-07T18:41:58.407Z,1.60
2022-09-07T18:47:21.187Z,2.67
2022-09-07T18:49:49.458Z,3.47
2022-09-07T18:55:02.383Z,2.80
2022-09-07T18:57:28.860Z,2.20
2022-09-07T18:59:55.332Z,2.00
2022-09-07T19:02:22.106Z,3.90
2022-09-07T19:07:35.013Z,2.93
2022-09-07T19:10:04.361Z,2.47
2022-09-07T19:12:30.752Z,2.90
2022-09-07T19:14:57.214Z,1.87
2022-09-07T19:17:24.685Z,1.70
2022-09-07T19:19:52.698Z,2.40
2022-09-07T19:22:19.174Z,2.13
2022-09-07T19:24:45.856Z,2.17
2022-09-07T19:27:12.323Z,1.73
2022-09-07T19:29:38.736Z,3.67
2022-09-07T19:32:05.535Z,2.07
2022-09-07T19:34:33.005Z,1.93
2022-09-07T19:36:59.631Z,4.07
2022-09-07T19:39:26.094Z,3.80
2022-09-07T19:41:52.726Z,1.97
2022-09-07T19:44:19.176Z,2.80
2022-09-07T19:46:45.711Z,2.43
2022-09-07T19:49:12.419Z,2.57
2022-09-07T19:51:39.467Z,3.07
2022-09-07T19:54:06.713Z,2.73
2022-09-07T19:56:33.182Z,1.40
2022-09-07T19:58:59.636Z,1.50
2022-09-07T20:01:26.208Z,2.87
2022-09-07T20:03:56.946Z,1.50
2022-09-07T20:06:23.536Z,2.70
2022-09-07T20:08:49.990Z,8.13
2022-09-07T20:11:17.483Z,1.30
2022-09-07T20:13:44.606Z,2.40
2022-09-07T20:16:12.615Z,3.93
2022-09-07T20:18:39.047Z,1.93
2022-09-07T20:21:06.939Z,5.13
2022-09-07T20:23:34.451Z,2.97
2022-09-07T20:26:01.983Z,2.03
2022-09-07T20:28:29.173Z,3.20
2022-09-07T20:30:55.683Z,3.97
2022-09-07T20:33:22.337Z,3.60
2022-09-07T20:35:48.901Z,2.60
2022-09-07T20:38:15.945Z,2.47
2022-09-07T20:40:55.518Z,1.57
2022-09-07T20:43:22.878Z,1.60
2022-09-07T20:45:49.643Z,4.13
2022-09-07T20:48:16.341Z,3.77
2022-09-07T20:50:42.798Z,3.97
2022-09-07T20:53:09.238Z,1.83
2022-09-07T20:55:35.969Z,2.57
2022-09-07T20:58:02.745Z,3.20
2022-09-07T21:00:29.462Z,3.07
2022-09-07T21:02:56.333Z,2.93
2022-09-07T21:05:22.851Z,2.87
2022-09-07T21:07:49.260Z,2.10
2022-09-07T21:10:15.761Z,1.63
2022-09-07T21:12:42.207Z,1.87
2022-09-07T21:15:08.990Z,2.77
2022-09-07T21:17:35.447Z,1.20
2022-09-07T21:20:01.955Z,3.00
2022-09-07T21:22:28.315Z,1.00
2022-09-07T21:24:54.705Z,1.30
2022-09-07T21:27:21.150Z,2.60
2022-09-07T21:29:47.521Z,2.73
2022-09-07T21:32:13.932Z,2.53
2022-09-07T21:34:40.471Z,2.63
2022-09-07T21:37:06.934Z,3.67
2022-09-07T21:39:33.389Z,1.87
2022-09-07T21:41:59.860Z,3.83
2022-09-07T21:44:26.394Z,1.03
2022-09-07T21:46:52.913Z,2.73
2022-09-07T21:49:19.368Z,2.40
2022-09-07T21:51:45.883Z,1.70
2022-09-07T21:54:12.303Z,2.47
2022-09-07T21:56:42.007Z,1.77
2022-09-07T21:59:10.957Z,2.50
2022-09-07T22:01:37.552Z,1.90
2022-09-07T22:04:04.742Z,4.50
2022-09-07T22:06:32.453Z,3.20
2022-09-07T22:08:59.449Z,3.40
2022-09-07T22:11:26.857Z,2.00
2022-09-07T22:13:54.494Z,1.73
2022-09-07T22:16:21.290Z,5.20
2022-09-07T22:18:48.124Z,3.37
2022-09-07T22:21:16.161Z,6.23
2022-09-07T22:23:47.237Z,2.13
2022-09-07T22:26:14.537Z,2.33
2022-09-07T22:28:41.030Z,4.73
2022-09-07T22:31:24.794Z,3.37
2022-09-07T22:33:52.295Z,2.00
2022-09-07T22:36:20.286Z,3.67
2022-09-07T22:38:48.070Z,2.53
2022-09-07T22:41:16.291Z,1.90
2022-09-07T22:43:42.883Z,4.07
2022-09-07T22:46:09.730Z,3.47
2022-09-07T22:48:36.254Z,5.63
2022-09-07T22:51:03.470Z,4.57
2022-09-07T22:53:31.346Z,3.03
2022-09-07T22:55:58.052Z,4.23
2022-09-07T22:58:25.172Z,2.20
2022-09-07T23:00:51.556Z,1.90
2022-09-07T23:03:18.219Z,4.03
2022-09-07T23:05:44.705Z,4.10
2022-09-07T23:08:11.126Z,2.73
2022-09-07T23:10:37.542Z,2.73
2022-09-07T23:13:04.129Z,1.83
2022-09-07T23:15:30.994Z,5.90
2022-09-07T23:17:57.537Z,1.53
2022-09-07T23:20:25.453Z,1.73
2022-09-07T23:22:52.621Z,2.07
2022-09-07T23:25:19.509Z,2.07
2022-09-07T23:27:46.159Z,2.60
2022-09-07T23:30:12.890Z,3.83
2022-09-07T23:32:39.326Z,2.43
2022-09-07T23:35:06.005Z,2.63
2022-09-07T23:37:32.474Z,1.53
2022-09-07T23:39:58.922Z,3.20
2022-09-07T23:42:25.359Z,2.87
2022-09-07T23:44:51.753Z,2.43
2022-09-07T23:47:18.361Z,2.03
2022-09-07T23:49:44.867Z,1.87
2022-09-07T23:52:11.316Z,2.70
2022-09-07T23:54:37.719Z,6.33
2022-09-07T23:57:04.242Z,3.63
2022-09-07T23:59:32.252Z,1.53
